createdAt,value
2018-10-09T00:02:11.205Z,11.80
2018-10-09T00:04:38.210Z,11.77
2018-10-09T00:07:05.255Z,12.02
2018-10-09T00:09:32.304Z,12.80
2018-10-09T00:11:59.357Z,11.88
2018-10-09T00:14:26.402Z,13.15
2018-10-09T00:16:53.450Z,12.45
2018-10-09T00:19:20.504Z,11.40
2018-10-09T00:21:47.443Z,11.88
2018-10-09T00:24:14.458Z,12.18
2018-10-09T00:26:41.541Z,12.60
2018-10-09T00:29:08.593Z,12.43
2018-10-09T00:31:35.743Z,12.70
2018-10-09T00:34:02.734Z,13.40
2018-10-09T00:36:29.841Z,12.77
2018-10-09T00:38:56.887Z,13.18
2018-10-09T00:41:24.038Z,13.30
2018-10-09T00:43:51.092Z,13.02
2018-10-09T00:46:18.136Z,13.77
2018-10-09T00:48:45.183Z,14.05
2018-10-09T00:51:12.256Z,13.18
2018-10-09T00:53:39.284Z,13.13
2018-10-09T00:56:06.330Z,14.02
2018-10-09T00:58:33.387Z,14.50
2018-10-09T01:01:00.377Z,13.87
2018-10-09T01:03:27.378Z,13.32
2018-10-09T01:05:54.365Z,14.63
2018-10-09T01:08:21.313Z,14.82
2018-10-09T01:10:48.524Z,15.25
2018-10-09T01:13:15.581Z,14.90
2018-10-09T01:15:42.615Z,14.35
2018-10-09T01:18:09.605Z,15.35
2018-10-09T01:20:36.609Z,14.93
2018-10-09T01:23:03.535Z,14.23
2018-10-09T01:25:30.512Z,15.50
2018-10-09T01:27:57.552Z,14.45
2018-10-09T01:30:24.603Z,15.20
2018-10-09T01:32:51.655Z,15.10
2018-10-09T01:35:18.698Z,15.85
2018-10-09T01:37:45.748Z,15.32
2018-10-09T01:40:13.000Z,14.85
2018-10-09T01:42:40.050Z,13.53
2018-10-09T01:45:07.102Z,14.27
2018-10-09T01:47:35.272Z,14.10
2018-10-09T01:50:02.330Z,14.57
2018-10-09T01:52:30.287Z,14.50
2018-10-09T01:54:57.340Z,14.33
2018-10-09T01:57:24.394Z,14.40
2018-10-09T01:59:51.438Z,14.03
2018-10-09T02:02:18.485Z,14.27
2018-10-09T02:04:45.433Z,14.90
2018-10-09T02:07:12.385Z,15.20
2018-10-09T02:09:39.432Z,14.70
2018-10-09T02:12:26.691Z,15.73
2018-10-09T02:15:08.581Z,14.00
2018-10-09T02:17:35.704Z,14.63
2018-10-09T02:20:02.950Z,15.77
2018-10-09T02:22:30.100Z,15.17
2018-10-09T02:24:57.159Z,14.00
2018-10-09T02:27:24.198Z,14.73
2018-10-09T02:29:51.266Z,14.77
2018-10-09T02:32:18.303Z,14.77
2018-10-09T02:34:45.345Z,15.57
2018-10-09T02:37:12.393Z,14.83
2018-10-09T02:39:39.447Z,14.20
2018-10-09T02:42:06.490Z,15.67
2018-10-09T02:44:33.643Z,14.93
2018-10-09T02:47:00.594Z,15.33
2018-10-09T02:49:28.195Z,16.10
2018-10-09T02:51:55.201Z,14.73
2018-10-09T02:54:22.246Z,14.90
2018-10-09T02:56:49.330Z,15.00
2018-10-09T02:59:16.348Z,15.07
2018-10-09T03:01:43.598Z,13.67
2018-10-09T03:04:10.650Z,13.47
2018-10-09T03:06:37.692Z,14.03
2018-10-09T03:09:04.844Z,14.37
2018-10-09T03:11:31.893Z,14.20
2018-10-09T03:13:59.964Z,13.60
2018-10-09T03:16:26.954Z,13.27
2018-10-09T03:18:53.902Z,12.37
2018-10-09T03:21:22.442Z,12.10
2018-10-09T03:23:49.395Z,12.83
2018-10-09T03:26:16.436Z,11.73
2018-10-09T03:28:43.486Z,10.87
2018-10-09T03:31:10.540Z,11.07
2018-10-09T03:33:37.584Z,10.00
2018-10-09T03:36:04.582Z,9.50
2018-10-09T03:38:31.686Z,8.90
2018-10-09T03:40:58.729Z,7.77
2018-10-09T03:43:25.778Z,7.33
2018-10-09T03:45:52.830Z,7.50
2018-10-09T03:48:20.078Z,7.03
2018-10-09T03:50:47.026Z,6.90
2018-10-09T03:53:14.073Z,6.37
2018-10-09T03:55:41.741Z,6.60
2018-10-09T03:58:30.619Z,5.90
2018-10-09T04:00:57.644Z,6.20
2018-10-09T04:03:24.591Z,6.43
2018-10-09T04:05:51.641Z,6.67
2018-10-09T04:08:18.791Z,6.37
2018-10-09T04:10:45.845Z,6.20
2018-10-09T04:13:12.887Z,6.30
2018-10-09T04:15:39.936Z,5.73
2018-10-09T04:18:06.991Z,6.67
2018-10-09T04:20:34.034Z,6.40
2018-10-09T04:23:02.724Z,6.23
2018-10-09T04:25:29.769Z,6.57
2018-10-09T04:27:56.822Z,6.43
2018-10-09T04:30:23.868Z,5.90
2018-10-09T04:32:50.916Z,6.27
2018-10-09T04:35:18.027Z,6.43
2018-10-09T04:37:47.307Z,5.80
2018-10-09T04:40:14.315Z,5.80
2018-10-09T04:42:41.364Z,6.40
2018-10-09T04:45:08.416Z,6.47
2018-10-09T04:47:35.774Z,6.03
2018-10-09T04:50:02.814Z,5.80
2018-10-09T04:52:30.272Z,5.70
2018-10-09T04:54:57.425Z,5.77
2018-10-09T04:57:24.479Z,5.80
2018-10-09T04:59:51.731Z,5.67
2018-10-09T05:02:18.982Z,6.10
2018-10-09T05:04:46.033Z,5.77
2018-10-09T05:07:13.083Z,6.30
2018-10-09T05:09:40.269Z,6.20
2018-10-09T05:12:07.299Z,5.53
2018-10-09T05:14:34.427Z,5.80
2018-10-09T05:17:03.012Z,5.93
2018-10-09T05:19:29.958Z,5.67
2018-10-09T05:21:57.623Z,5.63
2018-10-09T05:24:25.387Z,5.40
2018-10-09T05:26:52.333Z,4.97
2018-10-09T05:29:21.436Z,5.67
2018-10-09T05:31:48.585Z,5.87
2018-10-09T05:34:15.630Z,5.70
2018-10-09T05:37:04.939Z,6.30
2018-10-09T05:39:49.844Z,6.20
2018-10-09T05:42:29.912Z,6.07
2018-10-09T05:44:56.907Z,6.00
2018-10-09T05:47:25.657Z,5.80
2018-10-09T05:49:52.711Z,6.73
2018-10-09T05:52:19.754Z,5.93
2018-10-09T05:54:48.033Z,6.50
2018-10-09T05:57:15.086Z,7.07
2018-10-09T05:59:42.129Z,6.27
2018-10-09T06:02:10.202Z,6.50
2018-10-09T06:04:37.250Z,6.50
2018-10-09T06:07:05.677Z,6.67
2018-10-09T06:09:50.948Z,6.23
2018-10-09T06:12:17.959Z,5.97
2018-10-09T06:14:44.907Z,6.03
2018-10-09T06:17:11.955Z,6.03
2018-10-09T06:19:38.997Z,5.40
2018-10-09T06:22:24.647Z,6.03
2018-10-09T06:24:51.733Z,6.77
2018-10-09T06:27:18.783Z,5.97
2018-10-09T06:29:45.835Z,6.23
2018-10-09T06:32:12.879Z,6.07
2018-10-09T06:34:39.928Z,5.63
2018-10-09T06:37:06.986Z,6.40
2018-10-09T06:39:34.024Z,6.10
2018-10-09T06:42:00.978Z,6.60
2018-10-09T06:44:28.021Z,6.47
2018-10-09T06:46:55.069Z,6.13
2018-10-09T06:49:22.121Z,6.17
2018-10-09T06:51:49.165Z,6.10
2018-10-09T06:54:16.297Z,6.23
2018-10-09T06:56:44.695Z,7.13
2018-10-09T06:59:11.745Z,7.50
2018-10-09T07:01:38.799Z,7.90
2018-10-09T07:04:06.356Z,9.17
2018-10-09T07:06:33.504Z,8.47
2018-10-09T07:09:00.585Z,10.23
2018-10-09T07:11:28.590Z,9.57
2018-10-09T07:13:55.676Z,11.77
2018-10-09T07:16:22.722Z,12.10
2018-10-09T07:18:51.103Z,11.03
2018-10-09T07:21:18.156Z,11.90
2018-10-09T07:23:45.307Z,12.10
2018-10-09T07:26:13.875Z,12.20
2018-10-09T07:28:40.937Z,13.03
2018-10-09T07:31:07.990Z,12.80
2018-10-09T07:33:35.033Z,12.77
2018-10-09T07:36:13.264Z,13.23
2018-10-09T07:38:40.394Z,13.25
2018-10-09T07:41:07.444Z,13.05
2018-10-09T07:43:34.389Z,13.60
2018-10-09T07:49:12.641Z,13.40
2018-10-09T07:51:56.180Z,14.02
2018-10-09T07:54:28.796Z,13.48
2018-10-09T07:56:55.789Z,14.70
2018-10-09T07:59:22.839Z,13.40
2018-10-09T08:01:50.703Z,12.88
2018-10-09T08:04:17.794Z,13.50
2018-10-09T08:07:04.332Z,13.52
2018-10-09T08:09:47.154Z,13.75
2018-10-09T08:12:14.121Z,13.68
2018-10-09T08:14:41.477Z,13.27
2018-10-09T08:17:09.857Z,13.88
2018-10-09T08:19:38.953Z,13.90
2018-10-09T08:22:06.000Z,14.10
2018-10-09T08:24:33.057Z,14.63
2018-10-09T08:27:00.100Z,13.60
2018-10-09T08:29:28.071Z,14.55
2018-10-09T08:31:55.123Z,13.98
2018-10-09T08:34:22.172Z,14.63
2018-10-09T08:36:49.215Z,14.45
2018-10-09T08:39:17.083Z,14.25
2018-10-09T08:41:44.233Z,13.13
2018-10-09T08:44:12.613Z,14.48
2018-10-09T08:46:39.602Z,14.65
2018-10-09T08:49:08.349Z,13.15
2018-10-09T08:51:35.402Z,15.27
2018-10-09T08:54:02.446Z,14.65
2018-10-09T08:56:29.907Z,13.45
2018-10-09T08:58:56.959Z,16.52
2018-10-09T09:01:24.011Z,14.52
2018-10-09T09:03:52.177Z,14.70
2018-10-09T09:06:19.329Z,15.75
2018-10-09T09:08:46.273Z,15.98
2018-10-09T09:11:13.425Z,15.15
2018-10-09T09:13:41.067Z,14.38
2018-10-09T09:16:08.292Z,16.02
2018-10-09T09:18:35.494Z,15.30
2018-10-09T09:21:02.541Z,15.38
2018-10-09T09:23:29.596Z,15.07
2018-10-09T09:25:56.640Z,15.80
2018-10-09T09:28:23.688Z,15.10
2018-10-09T09:30:50.741Z,15.43
2018-10-09T09:33:17.800Z,15.82
2018-10-09T09:35:44.938Z,15.80
2018-10-09T09:38:12.086Z,15.95
2018-10-09T09:40:39.239Z,14.23
2018-10-09T09:43:06.286Z,15.10
2018-10-09T09:45:33.438Z,14.00
2018-10-09T09:48:01.413Z,16.23
2018-10-09T09:50:28.457Z,15.07
2018-10-09T09:52:55.509Z,15.15
2018-10-09T09:55:22.558Z,15.77
2018-10-09T09:57:49.677Z,17.85
2018-10-09T10:00:32.963Z,16.42
2018-10-09T10:02:59.987Z,16.00
2018-10-09T10:05:28.058Z,16.83
2018-10-09T10:07:55.103Z,15.80
2018-10-09T10:10:22.152Z,16.87
2018-10-09T10:12:49.168Z,17.67
2018-10-09T10:15:16.452Z,16.48
2018-10-09T10:17:45.447Z,16.37
2018-10-09T10:20:12.506Z,17.15
2018-10-09T10:22:39.488Z,16.77
2018-10-09T10:25:06.497Z,14.93
2018-10-09T10:27:33.541Z,16.77
2018-10-09T10:30:01.306Z,17.33
2018-10-09T10:32:28.458Z,17.27
2018-10-09T10:34:55.505Z,18.62
2018-10-09T10:37:23.597Z,17.65
2018-10-09T10:39:50.632Z,16.98
2018-10-09T10:42:17.771Z,14.07
2018-10-09T10:44:44.724Z,17.58
2018-10-09T10:47:12.490Z,17.60
2018-10-09T10:49:39.746Z,19.15
2018-10-09T10:52:06.796Z,18.17
2018-10-09T10:54:34.252Z,18.42
2018-10-09T10:57:01.304Z,18.55
2018-10-09T10:59:28.349Z,19.02
2018-10-09T11:01:55.509Z,17.73
2018-10-09T11:04:22.520Z,16.73
2018-10-09T11:06:49.515Z,17.62
2018-10-09T11:09:16.567Z,19.27
2018-10-09T11:11:43.615Z,17.77
2018-10-09T11:14:10.660Z,18.90
2018-10-09T11:16:37.606Z,17.70
2018-10-09T11:19:04.655Z,17.73
2018-10-09T11:21:33.352Z,17.40
2018-10-09T11:24:00.596Z,17.15
2018-10-09T11:26:27.643Z,16.58
2018-10-09T11:28:54.696Z,17.77
2018-10-09T11:31:21.740Z,17.35
2018-10-09T11:33:48.791Z,17.50
2018-10-09T11:36:17.885Z,17.02
2018-10-09T11:38:45.144Z,20.20
2018-10-09T11:41:12.605Z,18.00
2018-10-09T11:43:39.646Z,17.65
2018-10-09T11:46:06.646Z,18.10
2018-10-09T11:48:33.845Z,18.27
2018-10-09T11:51:01.208Z,20.23
2018-10-09T11:53:28.251Z,19.92
2018-10-09T11:55:55.205Z,21.30
2018-10-09T11:58:22.195Z,17.65
2018-10-09T12:00:49.293Z,18.02
2018-10-09T12:03:16.548Z,19.15
2018-10-09T12:05:43.558Z,19.05
2018-10-09T12:08:10.782Z,18.50
2018-10-09T12:10:38.417Z,19.75
2018-10-09T12:13:05.714Z,18.80
2018-10-09T12:15:32.716Z,20.25
2018-10-09T12:17:59.965Z,19.48
2018-10-09T12:20:27.633Z,19.83
2018-10-09T12:22:54.784Z,19.80
2018-10-09T12:25:22.031Z,18.98
2018-10-09T12:27:49.184Z,19.00
2018-10-09T12:30:17.028Z,18.70
2018-10-09T12:32:44.149Z,19.15
2018-10-09T12:35:13.984Z,18.85
2018-10-09T12:37:41.269Z,19.40
2018-10-09T12:40:09.593Z,18.92
2018-10-09T12:42:37.138Z,18.95
2018-10-09T12:45:04.421Z,18.60
2018-10-09T12:47:32.596Z,19.70
2018-10-09T12:50:01.253Z,20.12
2018-10-09T12:52:28.421Z,19.05
2018-10-09T12:54:55.735Z,19.45
2018-10-09T12:57:22.983Z,17.90
2018-10-09T12:59:50.180Z,19.17
2018-10-09T13:02:18.001Z,18.42
2018-10-09T13:04:47.815Z,20.50
2018-10-09T13:07:15.069Z,20.00
2018-10-09T13:09:43.141Z,20.27
2018-10-09T13:12:10.189Z,19.00
2018-10-09T13:14:37.859Z,20.48
2018-10-09T13:17:05.234Z,19.67
2018-10-09T13:19:32.359Z,19.52
2018-10-09T13:21:59.784Z,19.27
2018-10-09T13:24:27.123Z,19.90
2018-10-09T13:26:54.119Z,18.45
2018-10-09T13:29:21.273Z,18.98
2018-10-09T13:31:48.730Z,17.95
2018-10-09T13:34:15.778Z,18.30
2018-10-09T13:36:42.974Z,20.40
2018-10-09T13:39:10.181Z,17.83
2018-10-09T13:41:37.947Z,19.30
2018-10-09T13:44:05.178Z,19.87
2018-10-09T13:46:53.362Z,18.25
2018-10-09T13:49:36.703Z,18.45
2018-10-09T13:52:03.834Z,19.48
2018-10-09T13:54:30.876Z,20.10
2018-10-09T13:56:57.926Z,19.62
2018-10-09T13:59:25.122Z,18.67
2018-10-09T14:01:54.212Z,19.73
2018-10-09T14:04:21.433Z,18.25
2018-10-09T14:06:48.479Z,18.92
2018-10-09T14:09:16.347Z,18.52
2018-10-09T14:11:43.499Z,19.67
2018-10-09T14:14:10.651Z,18.15
2018-10-09T14:16:37.695Z,17.83
2018-10-09T14:19:05.047Z,19.58
2018-10-09T14:21:32.408Z,19.05
2018-10-09T14:23:59.452Z,18.92
2018-10-09T14:26:26.437Z,19.17
2018-10-09T14:28:53.446Z,19.10
2018-10-09T14:31:21.035Z,18.67
2018-10-09T14:33:48.874Z,19.35
2018-10-09T14:36:16.128Z,19.45
2018-10-09T14:38:43.279Z,18.62
2018-10-09T14:41:10.328Z,19.62
2018-10-09T14:43:39.935Z,19.42
2018-10-09T14:46:07.087Z,19.62
2018-10-09T14:48:34.239Z,19.90
2018-10-09T14:51:01.599Z,21.23
2018-10-09T14:53:28.750Z,21.15
2018-10-09T14:55:55.998Z,21.20
2018-10-09T14:58:22.944Z,21.42
2018-10-09T15:00:50.403Z,21.73
2018-10-09T15:03:17.556Z,21.02
2018-10-09T15:05:44.909Z,21.08
2018-10-09T15:08:13.125Z,21.40
2018-10-09T15:10:40.235Z,21.52
2018-10-09T15:13:07.388Z,20.62
2018-10-09T15:15:34.538Z,19.90
2018-10-09T15:18:04.094Z,21.75
2018-10-09T15:20:31.101Z,21.50
2018-10-09T15:22:58.140Z,21.27
2018-10-09T15:25:25.400Z,22.00
2018-10-09T15:28:12.992Z,22.02
2018-10-09T15:30:47.022Z,21.55
2018-10-09T15:33:15.139Z,21.62
2018-10-09T15:35:43.499Z,22.42
2018-10-09T15:38:11.589Z,22.37
2018-10-09T15:40:39.124Z,22.67
2018-10-09T15:43:09.789Z,22.20
2018-10-09T15:45:36.806Z,22.23
2018-10-09T15:48:04.314Z,22.80
2018-10-09T15:50:49.783Z,21.85
2018-10-09T15:53:17.750Z,22.65
2018-10-09T15:55:44.866Z,22.33
2018-10-09T15:58:14.220Z,22.42
2018-10-09T16:00:42.902Z,22.23
2018-10-09T16:03:11.184Z,22.73
2018-10-09T16:05:38.593Z,22.62
2018-10-09T16:08:06.000Z,22.60
2018-10-09T16:10:34.376Z,22.75
2018-10-09T16:13:03.866Z,23.02
2018-10-09T16:15:32.210Z,21.37
2018-10-09T16:17:59.836Z,23.23
2018-10-09T16:20:27.979Z,22.33
2018-10-09T16:22:56.376Z,22.20
2018-10-09T16:25:24.646Z,23.25
2018-10-09T16:27:53.603Z,22.25
2018-10-09T16:30:22.953Z,22.40
2018-10-09T16:32:50.991Z,22.40
2018-10-09T16:35:18.772Z,23.52
2018-10-09T16:37:47.219Z,24.52
2018-10-09T16:40:15.518Z,23.25
2018-10-09T16:42:42.654Z,25.02
2018-10-09T16:45:12.876Z,24.05
2018-10-09T16:47:42.713Z,24.52
2018-10-09T16:50:11.197Z,24.87
2018-10-09T16:52:40.677Z,25.48
2018-10-09T16:55:11.149Z,24.40
2018-10-09T16:57:38.868Z,25.67
2018-10-09T17:00:07.613Z,24.95
2018-10-09T17:02:37.034Z,24.30
2018-10-09T17:05:05.462Z,25.62
2018-10-09T17:07:32.998Z,25.17
2018-10-09T17:10:01.446Z,26.85
2018-10-09T17:12:29.861Z,26.35
2018-10-09T17:14:58.193Z,26.60
2018-10-09T17:17:27.577Z,26.12
2018-10-09T17:19:55.215Z,25.85
2018-10-09T17:22:25.521Z,24.77
2018-10-09T17:24:54.777Z,25.55
2018-10-09T17:27:22.741Z,26.40
2018-10-09T17:30:11.699Z,25.08
2018-10-09T17:32:59.771Z,24.50
2018-10-09T17:35:49.022Z,25.30
2018-10-09T17:38:37.519Z,23.83
2018-10-09T17:41:13.933Z,25.08
2018-10-09T17:44:03.066Z,24.98
2018-10-09T17:46:46.793Z,26.12
2018-10-09T17:49:36.000Z,26.60
2018-10-09T17:52:24.284Z,25.73
2018-10-09T17:55:13.385Z,27.20
2018-10-09T17:58:02.543Z,25.95
2018-10-09T18:00:51.040Z,27.10
2018-10-09T18:06:28.006Z,27.50
2018-10-09T18:09:16.230Z,27.90
2018-10-09T18:12:02.401Z,28.45
2018-10-09T18:14:49.880Z,26.58
2018-10-09T18:17:37.188Z,26.48
2018-10-09T18:20:23.963Z,27.98
2018-10-09T18:23:11.850Z,27.65
2018-10-09T18:25:56.184Z,28.73
2018-10-09T18:28:42.538Z,28.00
2018-10-09T18:31:30.060Z,28.77
2018-10-09T18:34:17.280Z,30.10
2018-10-09T18:37:07.630Z,30.20
2018-10-09T18:39:51.665Z,29.63
2018-10-09T18:42:21.252Z,29.73
2018-10-09T18:45:05.585Z,30.70
2018-10-09T18:50:38.856Z,31.67
2018-10-09T18:53:24.049Z,30.90
2018-10-09T18:56:07.411Z,30.80
2018-10-09T18:58:55.238Z,30.37
2018-10-09T19:01:44.232Z,30.40
2018-10-09T19:04:31.042Z,30.40
2018-10-09T19:07:22.952Z,29.80
2018-10-09T19:10:09.278Z,31.00
2018-10-09T19:15:45.310Z,31.73
2018-10-09T19:18:37.073Z,31.30
2018-10-09T19:21:27.655Z,30.05
2018-10-09T19:24:16.502Z,30.37
2018-10-09T19:27:02.130Z,31.52
2018-10-09T19:29:47.354Z,29.75
2018-10-09T19:32:18.108Z,30.08
2018-10-09T19:35:02.181Z,29.52
2018-10-09T19:37:50.545Z,28.70
2018-10-09T19:40:36.736Z,28.77
2018-10-09T19:43:25.170Z,29.48
2018-10-09T19:46:05.227Z,28.30
2018-10-09T19:48:48.909Z,28.23
2018-10-09T19:51:34.600Z,27.40
2018-10-09T19:54:20.686Z,28.42
2018-10-09T19:57:07.542Z,28.50
2018-10-09T19:59:58.842Z,28.83
2018-10-09T20:02:44.879Z,29.30
2018-10-09T20:05:29.585Z,28.95
2018-10-09T20:08:20.410Z,28.85
2018-10-09T20:11:04.859Z,29.35
2018-10-09T20:13:51.341Z,30.83
2018-10-09T20:16:33.788Z,29.92
2018-10-09T20:19:18.186Z,29.80
2018-10-09T20:22:03.098Z,28.98
2018-10-09T20:24:43.660Z,28.62
2018-10-09T20:27:26.676Z,28.95
2018-10-09T20:30:11.002Z,29.12
2018-10-09T20:32:50.106Z,29.05
2018-10-09T20:35:32.946Z,30.48
2018-10-09T20:38:20.780Z,30.65
2018-10-09T20:41:08.578Z,27.98
2018-10-09T20:43:55.461Z,30.42
2018-10-09T20:46:42.789Z,29.58
2018-10-09T20:49:29.769Z,29.73
2018-10-09T20:52:23.616Z,29.35
2018-10-09T20:55:08.030Z,29.02
2018-10-09T20:57:53.195Z,29.65
2018-10-09T21:00:40.088Z,30.33
2018-10-09T21:03:25.749Z,28.98
2018-10-09T21:06:13.548Z,28.92
2018-10-09T21:08:58.851Z,29.02
2018-10-09T21:11:44.236Z,30.02
2018-10-09T21:14:31.829Z,29.63
2018-10-09T21:17:17.094Z,30.33
2018-10-09T21:20:03.143Z,30.12
2018-10-09T21:22:49.346Z,30.25
2018-10-09T21:25:38.162Z,29.25
2018-10-09T21:28:24.294Z,29.98
2018-10-09T21:31:11.565Z,29.85
2018-10-09T21:33:56.700Z,29.40
2018-10-09T21:36:42.251Z,29.58
2018-10-09T21:39:28.413Z,29.23
2018-10-09T21:42:14.645Z,28.85
2018-10-09T21:47:44.325Z,30.25
2018-10-09T21:50:27.773Z,29.30
2018-10-09T21:53:13.349Z,29.05
2018-10-09T21:56:00.107Z,28.60
2018-10-09T21:58:27.141Z,28.10
2018-10-09T22:00:54.194Z,27.77
2018-10-09T22:03:21.240Z,27.35
2018-10-09T22:05:48.389Z,27.52
2018-10-09T22:08:15.439Z,27.55
2018-10-09T22:10:42.492Z,27.77
2018-10-09T22:13:09.536Z,27.25
2018-10-09T22:15:36.604Z,26.48
2018-10-09T22:18:03.638Z,27.62
2018-10-09T22:20:30.683Z,25.95
2018-10-09T22:22:57.727Z,27.20
2018-10-09T22:25:24.784Z,27.52
2018-10-09T22:27:51.826Z,27.27
2018-10-09T22:30:18.778Z,25.40
2018-10-09T22:32:45.769Z,26.27
2018-10-09T22:35:12.723Z,24.52
2018-10-09T22:37:39.715Z,24.37
2018-10-09T22:40:06.669Z,24.60
2018-10-09T22:42:33.712Z,24.42
2018-10-09T22:45:01.071Z,23.70
2018-10-09T22:47:32.799Z,23.85
2018-10-09T22:49:59.777Z,23.70
2018-10-09T22:52:26.826Z,22.83
2018-10-09T22:54:53.866Z,22.50
2018-10-09T22:57:21.019Z,23.70
2018-10-09T22:59:48.066Z,22.15
2018-10-09T23:02:15.127Z,23.48
2018-10-09T23:04:42.164Z,23.55
2018-10-09T23:07:09.212Z,23.77
2018-10-09T23:09:36.266Z,21.70
2018-10-09T23:12:03.309Z,21.95
2018-10-09T23:14:31.383Z,22.00
2018-10-09T23:16:58.532Z,22.20
2018-10-09T23:19:25.497Z,22.13
2018-10-09T23:21:53.964Z,21.95
2018-10-09T23:24:21.678Z,21.70
2018-10-09T23:26:49.289Z,21.20
2018-10-09T23:29:16.337Z,20.95
2018-10-09T23:31:43.391Z,21.30
2018-10-09T23:34:10.434Z,21.08
2018-10-09T23:36:39.739Z,21.05
2018-10-09T23:39:06.785Z,20.75
2018-10-09T23:41:33.839Z,19.80
2018-10-09T23:44:00.881Z,21.20
2018-10-09T23:46:27.933Z,19.80
2018-10-09T23:48:54.985Z,19.25
2018-10-09T23:51:21.927Z,19.90
2018-10-09T23:53:48.980Z,19.90
2018-10-09T23:56:16.035Z,19.40
2018-10-09T23:58:43.087Z,18.58
